新東京国際空港の過去48時間の天気

新東京国際空港 (Tokyo/New Tokyo Intl)

現在時刻: 5/21 14:38 JST (5/21 05:38 UTC) 以下の時間は現地時間です。

過去48時間のMETAR気象情報
時間 風向 風速(m/s) 視程 気温(℃) 湿度(%) 気圧(hPa) 天気現象
21 14:13 10 2000m 20 100 1001 強いしゅう雨 もや
21 14:00 11 3500m 20 94 1000 しゅう雨 もや
21 13:30 10 4000m 20 94 1001 しゅう雨 もや
21 13:00 南南東 10 3500m 19 100 1001 しゅう雨 もや
21 12:47 10 2000m 20 94 1001 強いしゅう雨 もや
21 12:30 南南東 12 4000m 20 94 1001 しゅう雨 もや
21 12:21 南南東 12 2000m 20 94 1001 しゅう雨 もや
21 12:00 南南東 11 4500m 20 94 1001 しゅう雨 もや
21 11:30 12 4000m 19 100 1002 しゅう雨 もや
21 11:00 南南東 11 4000m 19 100 1002 しゅう雨 もや
21 10:49 南南東 12 3200m 19 100 1002 しゅう雨 もや
21 10:30 南南東 12 2800m 19 100 1002 しゅう雨 もや
21 10:00 南南東 12 3000m 19 100 1002 しゅう雨 もや
21 09:30 南南東 11 2200m 19 100 1003 しゅう雨 もや
21 09:13 南南東 11 2500m 19 94 1003 しゅう雨 もや
21 09:00 南南東 12 3000m 19 94 1003 しゅう雨 もや
21 08:46 南南東 13 3000m 19 94 1003 弱いしゅう雨 もや
21 08:30 南南東 12 4000m 19 94 1003 弱いしゅう雨 もや
21 08:00 南南東 11 7000m 19 94 1004 弱いしゅう雨
21 07:41 南南東 11 7000m 19 94 1004 弱いしゅう雨
21 07:30 南南東 11 7000m 20 88 1004 弱いしゅう雨
21 07:00 南南東 10 7000m 20 88 1005 弱いしゅう雨
21 06:38 南南東 10 7000m 19 94 1005 弱いしゅう雨
21 06:00 南南東 9 8000m 19 94 1005
21 05:33 南南東 9 10km以上 19 94 1005 弱いしゅう雨
21 05:30 南南東 9 10km以上 19 94 1006 弱いしゅう雨
21 05:00 南南東 8 10km以上 19 94 1006
21 04:30 南南東 8 10km以上 19 88 1007
21 04:00 南南東 7 10km以上 18 94 1007
21 03:30 南南東 7 10km以上 18 94 1007
21 03:00 南南東 7 10km以上 18 94 1008
21 02:30 南南東 8 8000m 18 100 1009
21 02:00 南南東 8 4000m 18 100 1009 弱いしゅう雨 もや
21 01:30 南南東 7 8000m 19 88 1009
21 01:00 南南東 7 8000m 19 88 1010 弱いしゅう雨
21 00:30 南南東 7 10km以上 19 88 1010
21 00:00 6 9000m 19 88 1011 弱いしゅう雨
20 23:30 6 9000m 19 88 1011 弱いしゅう雨
20 23:00 南南東 7 10km以上 19 88 1011
20 22:30 南南東 7 10km以上 19 83 1012
20 22:00 南南東 6 10km以上 19 83 1013
20 21:30 南南東 7 10km以上 19 83 1013
20 21:00 南南東 6 10km以上 19 83 1013
20 20:30 南南東 7 10km以上 19 83 1014
20 20:00 南南東 7 10km以上 19 83 1014
20 19:30 南南東 7 10km以上 19 83 1014
20 19:00 南南東 7 10km以上 19 83 1014
20 18:30 南南東 6 10km以上 20 78 1014
20 18:00 南南東 7 10km以上 20 78 1014
20 17:30 南南東 8 10km以上 20 78 1014
20 17:00 南南東 8 10km以上 20 78 1014
20 16:32 南南東 8 10km以上 21 73 1014
20 16:04 南南東 8 10km以上 22 69 1014
20 15:30 7 10km以上 22 69 1015
20 15:00 南南東 9 10km以上 21 64 1015
20 14:49 南南東 8 10km以上 21 69 1015
20 14:30 南南東 9 10km以上 21 69 1015
20 14:00 南南東 8 10km以上 22 65 1015
20 13:30 7 10km以上 22 69 1016
20 13:02 8 10km以上 21 73 1016
20 13:00 南南東 9 10km以上 21 73 1016
20 12:39 南南東 8 10km以上 22 69 1016
20 12:30 南南東 7 10km以上 22 69 1016
20 12:00 7 10km以上 22 65 1017 弱いしゅう雨
20 11:45 南西 5 10km以上 21 73 1017 弱いしゅう雨
20 11:30 南南東 8 10km以上 20 78 1017 弱いしゅう雨
20 11:00 南南東 8 10km以上 24 61 1017
20 10:30 7 10km以上 22 60 1017
20 10:00 南南東 7 10km以上 22 60 1017
20 09:30 7 10km以上 21 69 1017
20 09:00 南南東 7 10km以上 22 65 1018
20 08:30 南南東 5 10km以上 22 65 1018
20 08:00 5 10km以上 21 73 1018
20 07:30 3 10km以上 19 83 1019
20 07:00 2 10km以上 19 83 1019
20 06:30 不定 1 10km以上 18 83 1019
20 06:00 不定 1 10km以上 18 88 1019
20 05:30 不定 1 10km以上 16 100 1020
20 05:00 不定 1 10km以上 16 94 1019
20 04:30 静穏 0 10km以上 16 94 1019 周辺でしゅう雨
20 04:00 東南東 1 10km以上 16 94 1019 周辺でしゅう雨
20 03:30 不定 1 10km以上 16 94 1019 弱いしゅう雨
20 03:00 南西 2 8000m 16 88 1020 弱いしゅう雨
20 02:30 南西 4 10km以上 16 88 1020 弱いしゅう雨
20 02:00 3 10km以上 17 88 1020 弱いしゅう雨
20 01:30 南南東 1 10km以上 16 94 1020
20 01:00 1 10km以上 16 94 1021
20 00:30 南東 2 10km以上 15 94 1021
20 00:00 東南東 2 10km以上 16 94 1021
19 23:30 南東 2 10km以上 16 94 1021
19 23:00 南南東 1 10km以上 17 88 1022
19 22:30 東南東 2 10km以上 17 88 1022 周辺でしゅう雨
19 22:00 南東 2 10km以上 16 88 1022 周辺でしゅう雨
19 21:30 南南東 2 10km以上 15 94 1022
19 21:00 南南東 4 10km以上 16 88 1022
19 20:30 南南東 2 10km以上 16 82 1022
19 20:00 南東 3 10km以上 15 88 1022
19 19:30 南南東 3 10km以上 17 77 1022
19 19:00 南東 5 10km以上 18 73 1021
19 18:30 南東 5 10km以上 18 73 1022
19 18:00 南東 5 10km以上 19 68 1022
19 17:30 南南東 7 10km以上 20 64 1021
19 17:00 南南東 7 10km以上 21 56 1021
19 16:30 南東 8 10km以上 21 60 1021
19 16:00 南南東 8 10km以上 22 57 1021
19 15:30 南東 7 10km以上 22 60 1021
19 15:00 南南東 8 10km以上 22 57 1021
RJAA 210513Z 17020G32KT 150V210 2000 R16R/P2000N R16L/P2000N +SHRA BR FEW004 BKN006 BKN008 20/20 Q1001 WS R16R WS R16L RMK 1ST004 5ST006 7ST008 A2956
RJAA 210500Z 17022G32KT 140V200 3500 SHRA BR FEW004 BKN006 BKN008 20/19 Q1000 WS R16L TEMPO 3000 SHRA BR FEW003 BKN005
RJAA 210430Z 17020G30KT 4000 SHRA BR FEW004 BKN006 20/19 Q1001 WS R16L TEMPO 3000 SHRA BR FEW003 BKN005 RMK 1ST004 7ST006 A2956
RJAA 210400Z 16020G32KT 3500 SHRA BR FEW004 BKN006 BKN008 19/19 Q1001 TEMPO 3000 SHRA BR FEW003 BKN005
RJAA 210347Z 17019G31KT 2000 R16R/2000N R16L/P2000N +SHRA BR FEW004 BKN006 20/19 Q1001 WS R16L RMK 1ST004 7ST006 A2957
RJAA 210330Z 16024G35KT 4000 R16R/P2000N R16L/2000N SHRA BR FEW004 BKN006 20/19 Q1001 TEMPO 3000 SHRA BR FEW003 BKN005
RJAA 210321Z 16023G36KT 2000 R16R/P2000N R16L/2000N SHRA BR FEW004 BKN006 20/19 Q1001 RMK 1ST004 7ST006 A2957
RJAA 210300Z 16021G32KT 4500 SHRA BR FEW004 BKN006 20/19 Q1001 TEMPO 3000 SHRA BR FEW003 BKN005
RJAA 210230Z 17023G37KT 130V190 4000 SHRA BR FEW004 BKN006 19/19 Q1002 WS R16L TEMPO 3000 SHRA BR FEW003 BKN005
RJAA 210200Z 16022G32KT 130V200 4000 SHRA BR FEW004 BKN006 BKN007 19/19 Q1002 WS R16R TEMPO 2500 SHRA BR FEW003 BKN005 RMK 1ST004 6ST006 7ST007 A2960
RJAA 210149Z 16024G35KT 3200 SHRA BR FEW004 BKN006 BKN008 19/19 Q1002 WS R16R WS R16L RMK 1ST004 6ST006 7ST008 A2960
RJAA 210130Z 16023G38KT 2800 SHRA BR FEW005 BKN006 BKN008 19/19 Q1002 TEMPO FEW003 BKN005
RJAA 210100Z 16023G39KT 3000 SHRA BR FEW005 SCT006 BKN008 19/19 Q1002 WS R16R WS R16L TEMPO FEW003 BKN005 RMK 2ST005 4ST006 7ST008 A2961
RJAA 210030Z 16022G32KT 130V200 2200 R16R/2000N R16L/2000N SHRA BR FEW005 SCT006 BKN008 19/19 Q1003 WS R16L TEMPO FEW003 BKN005 RMK 2ST005 3ST006 7ST008 A2962
RJAA 210013Z 16021G39KT 2500 R16R/P2000N R16L/P2000N SHRA BR FEW005 BKN009 BKN010 19/18 Q1003 WS R16R WS R16L RMK 2ST005 6ST009 7CU010 A2963
RJAA 210000Z 16024G36KT 3000 R16R/P2000N R16L/P2000N SHRA BR FEW007 SCT009 BKN010 19/18 Q1003 WS R16R TEMPO FEW003 BKN005
RJAA 202346Z 16025G36KT 3000 R16R/2000N R16L/2000N -SHRA BR FEW008 BKN010 19/18 Q1003 WS R16R RMK 1ST008 7CU010 A2963
RJAA 202330Z 15024G34KT 4000 -SHRA BR FEW009 BKN011 19/18 Q1003 WS R16L TEMPO 3000 SHRA BR FEW005 BKN008
RJAA 202300Z 15022G35KT 7000 -SHRA FEW009 BKN012 19/18 Q1004 WS R16R WS R16L TEMPO 3500 SHRA BR FEW005 BKN008
RJAA 202241Z 15021G33KT 7000 -SHRA FEW009 BKN012 BKN015 19/18 Q1004 WS R16R WS R16L RMK 1ST009 5CU012 7CU015 A2965 WS PS MS 20KT OBS AT 2228Z ON FNA RWY16R 2800FT AND BLW IN DES B744 PAC752
RJAA 202230Z 15021KT 7000 -SHRA FEW009 BKN012 BKN015 20/18 Q1004 TEMPO 17027G40KT 3500 SHRA BR FEW003 BKN005 RMK 1ST009 5CU012 7CU015 A2966
RJAA 202200Z 16020G32KT 7000 -SHRA FEW008 BKN012 BKN020 20/18 Q1005 TEMPO 3500 SHRA BR FEW003 BKN005 RMK 1ST008 5CU012 7CU020 A2968
RJAA 202138Z 15019G40KT 7000 -SHRA FEW008 BKN010 BKN020 19/18 Q1005 RMK 1ST008 6CU010 7CU020 A2968
RJAA 202100Z 16018G31KT 8000 FEW008 BKN010 BKN020 19/18 Q1005 TEMPO 4000 -SHRA BR FEW005 BKN008 RMK 1ST008 6CU010 7CU020 A2970
RJAA 202033Z 15018G28KT 9999 -SHRA FEW008 BKN010 19/18 Q1005 RMK 1ST008 7CU010 A2970
RJAA 202030Z 15017KT 9999 -SHRA FEW008 BKN010 19/18 Q1006 TEMPO 17018G28KT 4000 -SHRA BR FEW005 BKN008
RJAA 202000Z 15015KT 9999 FEW010 BKN012 BKN020 19/18 Q1006 TEMPO 17016G26KT 4000 -SHRA BR FEW005 BKN008
RJAA 201930Z 15015KT 9999 FEW010 BKN012 BKN020 19/17 Q1007 TEMPO 17016G26KT
RJAA 201900Z 16014KT 9999 FEW010 SCT015 BKN020 18/17 Q1007 TEMPO 17016G26KT RMK 1ST010 4CU015 7CU020 A2975
RJAA 201830Z 16014KT 9999 FEW008 SCT015 BKN020 18/17 Q1007 TEMPO 17016G26KT
RJAA 201800Z 16013KT 9999 FEW006 SCT010 BKN018 18/17 Q1008 TEMPO 17016G26KT FEW008 BKN012
RJAA 201730Z 15015KT 8000 FEW006 SCT010 BKN018 18/18 Q1009 TEMPO 17016G26KT 4000 -SHRA BR FEW005 BKN008 RMK 2ST006 4CU010 7CU018 A2979
RJAA 201700Z 15016KT 4000 -SHRA BR FEW006 SCT012 BKN020 18/18 Q1009 TEMPO 17016G26KT FEW005 BKN008
RJAA 201630Z 16013KT 8000 FEW010 SCT014 BKN045 19/17 Q1009 TEMPO FEW008 BKN013
RJAA 201600Z 16013KT 8000 -SHRA FEW010 SCT014 BKN070 19/17 Q1010 TEMPO FEW008 BKN013 RMK 1ST010 3CU014 7AC070 A2984
RJAA 201530Z 16013KT 9999 FEW015 BKN070 19/17 Q1010 NOSIG RMK 1CU015 7AC070 A2984
RJAA 201500Z 17012KT 9000 -SHRA FEW010 SCT015 BKN070 19/17 Q1011 NOSIG RMK 1ST010 3CU015 6AC070 A2986
RJAA 201430Z 17012KT 9000 -SHRA FEW010 SCT015 BKN120 19/17 Q1011 NOSIG RMK 1ST010 3CU015 6AC120 A2987
RJAA 201400Z 16013KT 9999 FEW015 SCT070 BKN110 19/17 Q1011 NOSIG RMK 1CU015 3AC070 7AC110 A2988
RJAA 201330Z 16013KT 9999 FEW015 SCT020 BKN070 19/16 Q1012 NOSIG RMK 1CU015 3CU020 7AC070 A2989
RJAA 201300Z 16011KT 9999 FEW020 BKN070 19/16 Q1013 NOSIG RMK 1CU020 7AC070 A2992
RJAA 201230Z 16013KT 9999 FEW020 BKN070 19/16 Q1013 NOSIG RMK 1CU020 7AC070 A2993
RJAA 201200Z 15012KT 9999 FEW020 BKN070 19/16 Q1013 NOSIG RMK 1CU020 7AC070 A2994
RJAA 201130Z 15014KT 9999 FEW020 BKN080 19/16 Q1014 NOSIG RMK 1CU020 7AC080 A2995
RJAA 201100Z 15014KT 9999 FEW020 BKN080 19/16 Q1014 NOSIG RMK 1CU020 7AC080 A2995
RJAA 201030Z 15014KT 9999 FEW020 BKN080 19/16 Q1014 NOSIG RMK 1CU020 7AC080 A2995
RJAA 201000Z 16013KT 9999 FEW020 BKN080 19/16 Q1014 NOSIG RMK 1CU020 7AC080 A2995
RJAA 200930Z 16012KT 9999 FEW020 BKN080 20/16 Q1014 NOSIG RMK 1CU020 7AC080 A2995
RJAA 200900Z 16014KT 9999 FEW020 BKN080 BKN/// 20/16 Q1014 NOSIG
RJAA 200830Z 16015KT 9999 FEW020 SCT080 BKN/// 20/16 Q1014 NOSIG
RJAA 200800Z 16016KT 9999 FEW020 BKN080 20/16 Q1014 TEMPO 16016G26KT RMK 2CU020 7AC080 A2996
RJAA 200732Z 16016G26KT 9999 FEW030 BKN080 BKN/// 21/16 Q1014 RMK 2CU030 5AC080 A2996
RJAA 200704Z 15015G26KT 120V200 9999 FEW020 SCT030 BKN080 22/16 Q1014 RMK 1CU020 3CU030 5AC080 A2997
RJAA 200630Z 17014KT 120V210 9999 FEW020 SCT030 BKN080 22/16 Q1015 WS R16L TEMPO 16016G28KT RMK 1CU020 3CU030 7AC080 A2997
RJAA 200600Z 15017KT 9999 FEW020 BKN080 21/14 Q1015 TEMPO 16016G28KT
RJAA 200549Z 16016G26KT 130V200 9999 FEW020 SCT030 BKN080 21/15 Q1015 WS R16R WS R16L RMK 1CU020 3CU030 7AC080 A2998
RJAA 200530Z 16017KT 9999 FEW020 SCT030 BKN080 21/15 Q1015 WS R16L TEMPO 16016G28KT
RJAA 200500Z 16016G26KT 9999 FEW020 SCT030 BKN070 22/15 Q1015 WS R16R NOSIG RMK 1CU020 4CU030 7AC070 A3000
RJAA 200430Z 17013KT 130V200 9999 FEW020 SCT030 BKN080 22/16 Q1016 TEMPO 16018G28KT
RJAA 200402Z 17016G26KT 140V210 9999 FEW020 BKN030 BKN080 21/16 Q1016 RMK 1CU020 5CU030 7AC080 A3002
RJAA 200400Z 16018KT 9999 FEW020 BKN030 BKN080 21/16 Q1016 TEMPO 16018G28KT
RJAA 200339Z 16015G26KT 9999 FEW020 SCT030 BKN080 22/16 Q1016 RMK 1CU020 4CU030 7AC080 A3002
RJAA 200330Z 16014KT 130V200 9999 FEW020 SCT030 BKN080 22/16 Q1016 TEMPO 16016G26KT RMK 1CU020 4CU030 6AC080 A3002
RJAA 200300Z 17013G27KT 140V200 9999 -SHRA FEW020 SCT030 BKN070 22/15 Q1017 NOSIG RMK 2CU020 4CU030 7AC070 A3004
RJAA 200245Z 22010KT 140V240 9999 -SHRA FEW020 BKN040 BKN070 21/16 Q1017 RMK 2CU020 6CU040 7AC070 A3005
RJAA 200230Z 16016KT 9999 -SHRA FEW020 BKN040 BKN070 20/16 Q1017 TEMPO 16016G26KT
RJAA 200200Z 16015KT 140V200 9999 FEW030 SCT070 BKN/// 24/16 Q1017 TEMPO 16015G26KT
RJAA 200130Z 17013KT 130V210 9999 FEW030 SCT070 BKN/// 22/14 Q1017 NOSIG
RJAA 200100Z 15013KT 9999 FEW020 SCT030 BKN070 22/14 Q1017 TEMPO 16015G26KT RMK 1CU020 3CU030 6AC070 A3005
RJAA 200030Z 17013KT 9999 FEW020 SCT030 21/15 Q1017 NOSIG RMK 1CU020 4CU030 A3006
RJAA 200000Z 15013KT 120V190 9999 FEW020 SCT030 22/15 Q1018 NOSIG RMK 1CU020 3CU030 A3006
RJAA 192330Z 16010KT 120V210 9999 FEW025 SCT070 22/15 Q1018 NOSIG RMK 2CU025 4AC070 A3007
RJAA 192300Z 18009KT 150V210 9999 FEW020 BKN070 21/16 Q1018 NOSIG RMK 1CU020 6AC070 A3008
RJAA 192230Z 17006KT 120V210 9999 FEW025 BKN070 19/16 Q1019 BECMG 16016KT
RJAA 192200Z 17004KT 120V220 9999 FEW025 BKN070 19/16 Q1019 NOSIG RMK 1CU025 5AC070 A3011
RJAA 192130Z VRB02KT 9999 FEW025 SCT070 18/15 Q1019 BECMG 16006KT
RJAA 192100Z VRB01KT 9999 FEW025 SCT070 18/16 Q1019 BECMG 16006KT
RJAA 192030Z VRB01KT 9999 FEW025 SCT070 16/16 Q1020 BECMG 16006KT
RJAA 192000Z VRB01KT 9999 FEW020 SCT030 BKN070 16/15 Q1019 BECMG 16006KT RMK 1CU020 3CU030 6AC070 A3012
RJAA 191930Z 00000KT 9999 VCSH FEW030 BKN060 BKN070 16/15 Q1019 NOSIG RMK 2CU030 5SC060 7AC070 A3012
RJAA 191900Z 12001KT 9999 VCSH FEW030 SCT050 BKN070 16/15 Q1019 NOSIG RMK 2CU030 4SC050 7AC070 A3012
RJAA 191830Z VRB02KT 9999 -SHRA FEW012 BKN025 BKN060 16/15 Q1019 NOSIG RMK 1CU012 5CU025 7SC060 A3012
RJAA 191800Z 22004KT 8000 -SHRA FEW015 BKN025 BKN040 16/14 Q1020 NOSIG RMK 1CU015 5CU025 7SC040 A3012
RJAA 191730Z 22007KT 9999 -SHRA FEW020 SCT040 BKN050 16/14 Q1020 NOSIG RMK 1CU020 4CU040 7SC050 A3013
RJAA 191700Z 18006KT 9999 -SHRA FEW020 SCT040 BKN050 17/15 Q1020 NOSIG RMK 1CU020 3CU040 7SC050 A3013
RJAA 191630Z 15001KT 9999 FEW030 BKN060 16/15 Q1020 NOSIG RMK 2CU030 7SC060 A3014
RJAA 191600Z 19002KT 9999 FEW020 SCT030 16/15 Q1021 NOSIG RMK 1CU020 4CU030 A3015
RJAA 191530Z 14003KT 9999 FEW030 SCT060 15/14 Q1021 NOSIG RMK 1CU030 4SC060 A3015
RJAA 191500Z 12004KT 9999 FEW030 BKN060 16/15 Q1021 NOSIG RMK 1CU030 7SC060 A3016
RJAA 191430Z 14003KT 9999 FEW030 BKN060 16/15 Q1021 NOSIG RMK 1CU030 7SC060 A3017
RJAA 191400Z 16002KT 9999 FEW030 BKN060 17/15 Q1022 NOSIG RMK 1CU030 7SC060 A3018
RJAA 191330Z 12004KT 100V180 9999 VCSH FEW030 BKN060 17/15 Q1022 NOSIG RMK 2CU030 7SC060 A3019
RJAA 191300Z 14003KT 9999 VCSH FEW030 BKN060 16/14 Q1022 NOSIG RMK 2CU030 7SC060 A3019
RJAA 191230Z 15004KT 9999 FEW030 SCT060 15/14 Q1022 NOSIG RMK 2CU030 4SC060 A3020
RJAA 191200Z 15007KT 9999 FEW030 16/14 Q1022 NOSIG RMK 2CU030 A3019
RJAA 191130Z 16003KT 120V190 9999 FEW030 16/13 Q1022 NOSIG RMK 1CU030 A3019
RJAA 191100Z 14005KT 9999 FEW030 15/13 Q1022 NOSIG RMK 1CU030 A3018
RJAA 191030Z 15006KT 9999 FEW030 17/13 Q1022 NOSIG RMK 1CU030 A3018
RJAA 191000Z 14010KT 9999 FEW030 18/13 Q1021 NOSIG RMK 1CU030 A3017
RJAA 190930Z 14009KT 9999 FEW040 18/13 Q1022 NOSIG RMK 1CU040 A3018
RJAA 190900Z 14010KT 9999 FEW040 19/13 Q1022 NOSIG RMK 1CU040 A3018
RJAA 190830Z 15013KT 9999 FEW040 20/13 Q1021 NOSIG RMK 1CU040 A3017
RJAA 190800Z 16014KT 9999 FEW035 21/12 Q1021 NOSIG RMK 1CU035 A3017
RJAA 190730Z 14015KT 9999 FEW035 21/13 Q1021 NOSIG RMK 1CU035 A3017
RJAA 190700Z 15016KT 9999 FEW035 22/13 Q1021 NOSIG RMK 1CU035 A3016
RJAA 190630Z 14014KT 120V180 9999 FEW035 22/14 Q1021 NOSIG RMK 1CU035 A3016
RJAA 190600Z 15015KT 9999 FEW035 22/13 Q1021 NOSIG RMK 1CU035 A3017